Latest Flight | Flight Log | Data Trends | Login | Join FlightData.com!
Flight Info - N131SR (Cirrus SR22 Turbo (TAT) #1878)
Date
Origin
Dest
Depart
Arrive
Hobbs
Flight Time
Ground Time
Flight Distance
Taxi Distance
Fuel
Fuel/hr
Fuel/nm
Altitude
Gnd Speed
Sat, May 14, 2022 EDLD EDLD 08:31 09:12 0.68 hrs 0.4 hrs (0:24) 0.28 hrs (0:17) 49.77 nm 1.12 nm 6.5 gal 9.55 gal/hr 0.13 gal/nm 4098 msl 123.05 kts
Flight Track | Google Earth Export: 3D View, Cockpit View
NEXRAD Archive
Zoom In: Double click. Zoom Out: Double right-click.
Scroll Map: Left-click and drag. Show on graph: Click on track.
Graph | Increase Sample Rate (1 sec) |
Zoom In: Click and Drag to the right and down. Zoom Out: Click and Drag to the left.
Scroll Chart (while zoomed in): Hold right mouse-button.
More Flights - N131SR
Fri, Mar 18, 2022 EDLD EDLD 15:58 17:22 1.4 hrs 1.03 hrs 127.94 nm 13.80 gal 9.89 gal/hr 0.11 gal/nm 3438 msl 124 kts
Cruise 16:29:44 16:37:02   7m 18s 16.1 nm 1.59 gal 13 gal/h 0.1 gal/nm 0 feet 118 kts    
Cruise 16:47:20 16:57:08   9m 48s 20.78 nm 1.96 gal 12 gal/h 0.09 gal/nm 0 feet 141 kts    
Cruise 17:08:38 17:10:56   2m 18s 4.87 nm 0.5 gal 13 gal/h 0.1 gal/nm 0 feet 133 kts    
Tue, Mar 22, 2022 EDLD EDLD 17:14 17:48 0.57 hrs 0.28 hrs 32.52 nm 4.50 gal 7.88 gal/hr 0.14 gal/nm 2218 msl 118 kts
Cruise 17:39:17 17:40:59   1m 42s 3.52 nm 0.31 gal 11 gal/h 0.09 gal/nm 0 feet 108 kts    
Sun, Mar 27, 2022 EDLT EDLD 12:16 12:51 0.58 hrs 0.4 hrs 49.00 nm 5.30 gal 9.18 gal/hr 0.11 gal/nm 2149 msl 123 kts
Cruise 12:36:35 12:40:35   4m 00s 8.5 nm 0.8 gal 12 gal/h 0.09 gal/nm 0 feet 128 kts    
Mon, Apr 18, 2022 EDWY EDLD 15:14 16:31 1.29 hrs 1.03 hrs 136.39 nm 14.50 gal 11.22 gal/hr 0.11 gal/nm 5351 msl 132 kts
Cruise 15:51:50 16:04:32   12m 42s 28.61 nm 2.54 gal 12 gal/h 0.09 gal/nm 0 feet 138 kts    
Cruise 16:13:02 16:14:26   1m 24s 3.02 nm 0.4 gal 17 gal/h 0.13 gal/nm 0 feet 129 kts    
Mon, May 9, 2022 EDWG EDLD 16:01 17:25 1.39 hrs 1.13 hrs 141.45 nm 16.50 gal 11.84 gal/hr 0.12 gal/nm 5253 msl 124 kts
Cruise 16:27:42 16:33:00   5m 18s 12.23 nm 1.06 gal 12 gal/h 0.09 gal/nm 0 feet 123 kts    
Cruise 16:45:48 16:49:24   3m 36s 8.44 nm 0.9 gal 15 gal/h 0.11 gal/nm 0 feet 129 kts    
Cruise 16:54:30 16:55:54   1m 24s 3.23 nm 0.21 gal 9 gal/h 0.07 gal/nm 0 feet 125 kts    
Cruise 17:07:30 17:12:30   5m 00s 11.45 nm 1.09 gal 13 gal/h 0.1 gal/nm 0 feet 127 kts    
Fri, May 13, 2022 EDLD EDLD 17:00 17:30 0.51 hrs 0.26 hrs 31.43 nm 4.40 gal 8.59 gal/hr 0.14 gal/nm 2641 msl 120 kts
Sat, May 14, 2022 EDLD EDLD 08:31 09:12 0.68 hrs 0.4 hrs 49.77 nm 6.50 gal 9.55 gal/hr 0.13 gal/nm 4098 msl 123 kts
Thu, Jul 15, 2021 EDLD EDLD 12:24 12:30 0.1 hrs 0.01 hrs 0.00 nm 0.00 gal 0.00 gal/hr 0.00 gal/nm 371 msl 0 kts
Tue, Jul 20, 2021 EDCG EDLD 15:46 17:54 2.13 hrs 1.94 hrs 291.92 nm 29.00 gal 13.59 gal/hr 0.10 gal/nm 9039 msl 151 kts
Cruise 16:12:10 17:30:34   1h 18m 202.58 nm 16.99 gal 13 gal/h 0.08 gal/nm 0 feet 154 kts    
Fri, Jul 23, 2021 EDLS EDLD 16:52 17:59 1.12 hrs 0.88 hrs 115.14 nm 11.80 gal 10.50 gal/hr 0.10 gal/nm 2766 msl 131 kts
Cruise 17:12:27 17:15:39   3m 12s 7.34 nm 0.59 gal 11 gal/h 0.08 gal/nm 0 feet 139 kts    
Cruise 17:21:03 17:49:57   28m 54s 65.06 nm 5.78 gal 12 gal/h 0.09 gal/nm 0 feet 133 kts    
Mon, Aug 2, 2021 EDWY EDLD 14:47 16:09 1.37 hrs 1.15 hrs 152.31 nm 15.10 gal 11.03 gal/hr 0.10 gal/nm 3159 msl 132 kts
Cruise 15:11:20 15:22:26   11m 06s 25.94 nm 2.22 gal 12 gal/h 0.09 gal/nm 0 feet 144 kts    
Cruise 15:30:32 15:32:50   2m 18s 5.41 nm 0.5 gal 13 gal/h 0.09 gal/nm 0 feet 140 kts    
Cruise 15:38:38 15:44:38   6m 00s 13.94 nm 1.2 gal 12 gal/h 0.09 gal/nm 0 feet 136 kts    
Mon, Aug 9, 2021 EDLB EDLD 11:04 11:29 0.42 hrs 0.26 hrs 28.12 nm 3.70 gal 8.86 gal/hr 0.13 gal/nm 2303 msl 110 kts
Thu, Aug 12, 2021 EDXO EDLD 13:35 15:40 2.08 hrs 1.8 hrs 226.09 nm 22.80 gal 10.98 gal/hr 0.10 gal/nm 4669 msl 125 kts
Cruise 14:06:39 14:31:33   24m 54s 57.72 nm 4.98 gal 12 gal/h 0.09 gal/nm 0 feet 128 kts    
Cruise 14:41:15 14:45:45   4m 30s 10.84 nm 0.98 gal 13 gal/h 0.09 gal/nm 0 feet 133 kts    
Cruise 14:53:45 15:09:21   15m 36s 35.14 nm 2.86 gal 11 gal/h 0.08 gal/nm 0 feet 123 kts    
Cruise 15:16:33 15:25:45   9m 12s 20.28 nm 1.84 gal 12 gal/h 0.09 gal/nm 0 feet 125 kts    
Complete Flight Log (84)
FlightData.com is sponsored by AEROCOR